createdAt,value
2022-09-21T00:01:29.111Z,1.40
2022-09-21T00:04:23.662Z,1.83
2022-09-21T00:07:18.517Z,1.55
2022-09-21T00:10:13.032Z,1.23
2022-09-21T00:13:10.172Z,1.48
2022-09-21T00:16:08.451Z,1.50
2022-09-21T00:19:03.974Z,1.60
2022-09-21T00:21:58.733Z,1.63
2022-09-21T00:24:53.175Z,1.35
2022-09-21T00:27:49.943Z,1.27
2022-09-21T00:30:44.474Z,1.20
2022-09-21T00:33:38.957Z,0.90
2022-09-21T00:36:33.529Z,0.90
2022-09-21T00:39:28.011Z,1.10
2022-09-21T00:42:28.492Z,1.33
2022-09-21T00:45:23.003Z,1.00
2022-09-21T00:48:17.625Z,1.05
2022-09-21T00:51:12.373Z,1.02
2022-09-21T00:54:16.469Z,1.00
2022-09-21T00:57:11.109Z,1.00
2022-09-21T01:00:10.556Z,1.20
2022-09-21T01:03:05.797Z,1.00
2022-09-21T01:06:00.383Z,0.80
2022-09-21T01:09:00.284Z,0.60
2022-09-21T01:12:18.163Z,0.60
2022-09-21T01:15:33.840Z,0.70
2022-09-21T01:18:57.433Z,1.00
2022-09-21T01:22:20.636Z,0.82
2022-09-21T01:25:34.323Z,0.70
2022-09-21T01:28:46.939Z,0.88
2022-09-21T01:31:48.373Z,1.00
2022-09-21T01:35:05.110Z,2.10
2022-09-21T01:38:25.061Z,2.50
2022-09-21T01:41:24.807Z,2.90
2022-09-21T01:44:24.442Z,3.05
2022-09-21T01:47:20.750Z,3.28
2022-09-21T01:50:16.467Z,2.43
2022-09-21T01:53:34.001Z,2.75
2022-09-21T01:56:43.886Z,3.35
2022-09-21T02:00:00.242Z,3.72
2022-09-21T02:03:11.261Z,2.50
2022-09-21T02:06:08.790Z,3.42
2022-09-21T02:09:03.299Z,2.80
2022-09-21T02:11:59.539Z,3.10
2022-09-21T02:14:57.060Z,3.30
2022-09-21T02:18:09.896Z,2.22
2022-09-21T02:21:10.439Z,2.20
2022-09-21T02:24:07.833Z,2.40
2022-09-21T02:27:06.586Z,3.05
2022-09-21T02:30:02.773Z,2.80
2022-09-21T02:33:20.555Z,2.47
2022-09-21T02:36:24.003Z,2.10
2022-09-21T02:39:39.635Z,2.70
2022-09-21T02:42:39.481Z,3.05
2022-09-21T02:45:43.882Z,2.78
2022-09-21T02:48:50.985Z,3.10
2022-09-21T02:51:53.667Z,3.03
2022-09-21T02:54:52.403Z,2.92
2022-09-21T02:57:49.702Z,2.80
2022-09-21T03:00:46.834Z,3.50
2022-09-21T03:03:41.462Z,3.28
2022-09-21T03:06:36.058Z,3.67
2022-09-21T03:09:30.536Z,3.22
2022-09-21T03:12:25.337Z,2.95
2022-09-21T03:15:19.982Z,3.00
2022-09-21T03:18:16.282Z,2.63
2022-09-21T03:21:10.809Z,2.42
2022-09-21T03:24:05.555Z,2.88
2022-09-21T03:27:00.164Z,2.63
2022-09-21T03:29:56.780Z,2.53
2022-09-21T03:32:55.010Z,2.67
2022-09-21T03:35:50.827Z,2.95
2022-09-21T03:38:45.872Z,2.40
2022-09-21T03:41:40.458Z,3.80
2022-09-21T03:44:35.046Z,2.83
2022-09-21T03:47:30.503Z,3.08
2022-09-21T03:50:26.378Z,2.80
2022-09-21T03:53:20.965Z,3.15
2022-09-21T03:56:15.494Z,2.67
2022-09-21T03:59:13.879Z,2.55
2022-09-21T04:02:09.003Z,2.80
2022-09-21T04:05:03.672Z,3.30
2022-09-21T04:07:58.795Z,2.75
2022-09-21T04:10:53.365Z,2.97
2022-09-21T04:13:54.654Z,2.28
2022-09-21T04:16:49.203Z,2.33
2022-09-21T04:19:43.707Z,2.47
2022-09-21T04:22:43.135Z,2.67
2022-09-21T04:25:38.417Z,2.30
2022-09-21T04:28:34.141Z,2.42
2022-09-21T04:31:31.011Z,2.83
2022-09-21T04:34:25.591Z,2.90
2022-09-21T04:37:20.478Z,2.35
2022-09-21T04:40:15.130Z,2.83
2022-09-21T04:43:09.837Z,2.20
2022-09-21T04:46:12.290Z,2.67
2022-09-21T04:49:07.101Z,2.63
2022-09-21T04:52:01.758Z,2.20
2022-09-21T04:54:56.369Z,2.35
2022-09-21T04:57:50.825Z,2.15
2022-09-21T05:00:45.403Z,2.67
2022-09-21T05:03:39.977Z,2.17
2022-09-21T05:06:35.778Z,2.30
2022-09-21T05:09:48.513Z,2.42
2022-09-21T05:12:44.642Z,1.95
2022-09-21T05:15:42.204Z,2.42
2022-09-21T05:18:37.181Z,2.85
2022-09-21T05:21:35.010Z,2.22
2022-09-21T05:24:29.694Z,2.05
2022-09-21T05:27:24.562Z,2.47
2022-09-21T05:30:20.669Z,2.22
2022-09-21T05:33:21.717Z,1.92
2022-09-21T05:36:44.489Z,2.17
2022-09-21T05:39:39.363Z,2.25
2022-09-21T05:42:34.641Z,1.98
2022-09-21T05:45:30.295Z,2.15
2022-09-21T05:48:42.049Z,2.42
2022-09-21T05:52:20.888Z,2.08
2022-09-21T05:55:31.357Z,2.20
2022-09-21T05:58:51.413Z,2.28
2022-09-21T06:02:01.051Z,2.30
2022-09-21T06:04:58.087Z,2.20
2022-09-21T06:07:52.785Z,2.22
2022-09-21T06:10:47.437Z,1.70
2022-09-21T06:13:42.956Z,1.92
2022-09-21T06:16:44.725Z,1.83
2022-09-21T06:19:39.363Z,1.85
2022-09-21T06:22:33.820Z,2.10
2022-09-21T06:25:28.391Z,1.77
2022-09-21T06:28:23.131Z,1.95
2022-09-21T06:31:18.075Z,2.03
2022-09-21T06:34:13.584Z,2.88
2022-09-21T06:37:08.165Z,2.17
2022-09-21T06:40:02.687Z,2.80
2022-09-21T06:43:01.538Z,1.60
2022-09-21T06:45:58.149Z,1.92
2022-09-21T06:48:52.903Z,1.45
2022-09-21T06:51:48.955Z,1.50
2022-09-21T06:54:43.722Z,1.65
2022-09-21T06:57:41.520Z,1.38
2022-09-21T07:00:36.058Z,1.45
2022-09-21T07:03:30.502Z,1.27
2022-09-21T07:06:25.099Z,1.63
2022-09-21T07:12:35.945Z,1.73
2022-09-21T07:15:31.281Z,1.60
2022-09-21T07:18:26.035Z,1.38
2022-09-21T07:21:20.576Z,1.48
2022-09-21T07:24:16.369Z,1.35
2022-09-21T07:27:10.793Z,1.52
2022-09-21T07:30:06.449Z,1.40
2022-09-21T07:33:01.200Z,1.63
2022-09-21T07:35:59.234Z,1.30
2022-09-21T07:38:55.246Z,1.10
2022-09-21T07:41:49.950Z,1.58
2022-09-21T07:44:44.472Z,1.80
2022-09-21T07:47:39.144Z,1.27
2022-09-21T07:50:37.697Z,1.50
2022-09-21T07:53:33.390Z,1.70
2022-09-21T07:56:28.368Z,1.60
2022-09-21T07:59:22.997Z,1.48
2022-09-21T08:02:17.526Z,1.63
2022-09-21T08:05:12.038Z,2.10
2022-09-21T08:08:06.637Z,1.35
2022-09-21T08:11:10.686Z,1.63
2022-09-21T08:14:06.000Z,1.55
2022-09-21T08:17:00.652Z,1.65
2022-09-21T08:19:56.066Z,1.85
2022-09-21T08:22:50.519Z,1.40
2022-09-21T08:25:45.855Z,1.92
2022-09-21T08:28:41.600Z,2.00
2022-09-21T08:31:36.119Z,1.95
2022-09-21T08:34:30.758Z,1.48
2022-09-21T08:37:25.779Z,1.83
2022-09-21T08:40:21.682Z,1.40
2022-09-21T08:43:30.579Z,2.45
2022-09-21T08:46:29.371Z,2.13
2022-09-21T08:49:28.024Z,1.80
2022-09-21T08:52:23.709Z,1.80
2022-09-21T08:55:25.542Z,2.28
2022-09-21T08:58:32.416Z,2.00
2022-09-21T09:01:35.926Z,2.13
2022-09-21T09:04:38.130Z,1.52
2022-09-21T09:07:44.375Z,1.70
2022-09-21T09:11:04.545Z,2.22
2022-09-21T09:14:16.215Z,1.77
2022-09-21T09:17:25.851Z,1.77
2022-09-21T09:20:22.668Z,2.08
2022-09-21T09:23:45.523Z,1.70
2022-09-21T09:26:51.932Z,1.75
2022-09-21T09:30:02.885Z,1.52
2022-09-21T09:33:08.194Z,1.48
2022-09-21T09:36:08.485Z,2.20
2022-09-21T09:39:17.817Z,1.90
2022-09-21T09:42:36.681Z,2.28
2022-09-21T09:45:46.147Z,3.03
2022-09-21T09:48:54.345Z,2.30
2022-09-21T09:51:49.984Z,2.08
2022-09-21T09:54:45.198Z,2.47
2022-09-21T09:57:40.128Z,2.10
2022-09-21T10:00:34.675Z,2.40
2022-09-21T10:03:30.389Z,1.92
2022-09-21T10:06:34.730Z,2.30
2022-09-21T10:09:36.847Z,2.22
2022-09-21T10:12:33.577Z,1.83
2022-09-21T10:15:28.215Z,2.33
2022-09-21T10:18:27.642Z,2.10
2022-09-21T10:21:28.934Z,2.05
2022-09-21T10:24:26.839Z,1.85
2022-09-21T10:27:29.296Z,2.05
2022-09-21T10:30:34.728Z,2.20
2022-09-21T10:33:29.154Z,2.28
2022-09-21T10:36:41.649Z,3.15
2022-09-21T10:39:36.920Z,3.45
2022-09-21T10:42:39.281Z,2.10
2022-09-21T10:45:38.378Z,2.63
2022-09-21T10:48:33.354Z,1.73
2022-09-21T10:51:35.191Z,2.30
2022-09-21T10:54:35.209Z,2.03
2022-09-21T10:57:30.965Z,3.30
2022-09-21T11:00:30.686Z,2.40
2022-09-21T11:03:51.123Z,3.10
2022-09-21T11:07:04.181Z,2.65
2022-09-21T11:10:19.911Z,1.95
2022-09-21T11:13:31.665Z,1.95
2022-09-21T11:16:39.551Z,1.52
2022-09-21T11:19:55.818Z,1.73
2022-09-21T11:23:08.225Z,2.00
2022-09-21T11:26:20.086Z,1.70
2022-09-21T11:29:21.657Z,1.90
2022-09-21T11:32:35.912Z,1.58
2022-09-21T11:35:30.301Z,1.60
2022-09-21T11:38:43.388Z,1.42
2022-09-21T11:42:00.478Z,1.30
2022-09-21T11:45:06.183Z,2.10
2022-09-21T11:48:16.356Z,1.38
2022-09-21T11:51:29.729Z,1.38
2022-09-21T11:54:25.384Z,1.85
2022-09-21T11:57:41.627Z,1.88
2022-09-21T12:00:59.962Z,2.22
2022-09-21T12:04:15.986Z,2.13
2022-09-21T12:07:47.884Z,2.55
2022-09-21T12:10:49.559Z,4.85
2022-09-21T12:14:21.238Z,5.90
2022-09-21T12:17:52.652Z,4.68
2022-09-21T12:21:02.473Z,3.75
2022-09-21T12:24:05.260Z,2.97
2022-09-21T12:27:04.784Z,3.47
2022-09-21T12:30:22.306Z,3.58
2022-09-21T12:33:35.914Z,2.17
2022-09-21T12:36:44.539Z,1.50
2022-09-21T12:40:00.704Z,1.92
2022-09-21T12:43:03.083Z,1.98
2022-09-21T12:46:05.192Z,1.70
2022-09-21T12:49:03.610Z,1.63
2022-09-21T12:52:04.869Z,1.45
2022-09-21T12:55:30.744Z,1.50
2022-09-21T12:58:51.957Z,1.92
2022-09-21T13:01:57.384Z,1.80
2022-09-21T13:04:53.966Z,1.50
2022-09-21T13:08:14.793Z,1.45
2022-09-21T13:11:10.156Z,1.08
2022-09-21T13:14:06.768Z,1.10
2022-09-21T13:17:04.895Z,0.98
2022-09-21T13:20:08.124Z,0.88
2022-09-21T13:23:04.032Z,1.50
2022-09-21T13:26:10.374Z,1.80
2022-09-21T13:29:29.153Z,1.90
2022-09-21T13:32:25.774Z,1.38
2022-09-21T13:35:54.233Z,1.70
2022-09-21T13:38:49.218Z,1.60
2022-09-21T13:44:59.469Z,1.70
2022-09-21T13:48:01.500Z,1.55
2022-09-21T13:50:59.836Z,1.83
2022-09-21T13:54:01.292Z,1.67
2022-09-21T13:57:19.191Z,1.70
2022-09-21T14:00:14.209Z,2.25
2022-09-21T14:03:32.213Z,2.15
2022-09-21T14:06:35.793Z,2.45
2022-09-21T14:09:42.209Z,2.20
2022-09-21T14:12:45.868Z,2.25
2022-09-21T14:15:41.847Z,2.30
2022-09-21T14:18:40.393Z,1.95
2022-09-21T14:21:34.836Z,2.60
2022-09-21T14:24:54.034Z,2.10
2022-09-21T14:27:51.899Z,2.47
2022-09-21T14:31:02.059Z,2.40
2022-09-21T14:34:03.004Z,2.03
2022-09-21T14:37:01.046Z,2.47
2022-09-21T14:39:56.100Z,1.88
2022-09-21T14:42:52.319Z,2.50
2022-09-21T14:46:03.043Z,3.33
2022-09-21T14:49:31.282Z,3.22
2022-09-21T14:52:48.462Z,2.63
2022-09-21T14:56:04.615Z,3.13
2022-09-21T14:59:37.078Z,2.70
2022-09-21T15:02:36.993Z,2.78
2022-09-21T15:05:31.440Z,2.83
2022-09-21T15:09:13.524Z,3.00
2022-09-21T15:12:21.997Z,3.05
2022-09-21T15:15:32.632Z,2.80
2022-09-21T15:18:27.490Z,3.40
2022-09-21T15:21:34.168Z,3.35
2022-09-21T15:24:33.078Z,3.20
2022-09-21T15:27:35.053Z,3.20
2022-09-21T15:30:34.472Z,2.63
2022-09-21T15:33:28.939Z,2.20
2022-09-21T15:36:32.365Z,3.08
2022-09-21T15:39:32.882Z,2.95
2022-09-21T15:42:27.598Z,2.50
2022-09-21T15:45:22.083Z,2.50
2022-09-21T15:48:16.548Z,2.97
2022-09-21T15:51:15.586Z,2.63
2022-09-21T15:54:25.277Z,2.55
2022-09-21T15:57:27.989Z,2.95
2022-09-21T16:00:26.004Z,2.63
2022-09-21T16:03:27.132Z,2.63
2022-09-21T16:06:28.895Z,2.60
2022-09-21T16:09:30.033Z,2.67
2022-09-21T16:12:46.380Z,2.70
2022-09-21T16:15:41.367Z,2.70
2022-09-21T16:18:50.506Z,3.40
2022-09-21T16:21:44.996Z,3.42
2022-09-21T16:24:47.807Z,2.50
2022-09-21T16:27:59.264Z,3.00
2022-09-21T16:30:56.439Z,2.88
2022-09-21T16:33:50.825Z,2.85
2022-09-21T16:36:46.890Z,2.50
2022-09-21T16:39:43.425Z,2.72
2022-09-21T16:42:37.883Z,3.08
2022-09-21T16:45:33.605Z,2.60
2022-09-21T16:48:28.216Z,3.05
2022-09-21T16:51:26.489Z,2.63
2022-09-21T16:54:26.549Z,2.35
2022-09-21T16:57:21.245Z,2.30
2022-09-21T17:00:21.488Z,2.28
2022-09-21T17:03:17.084Z,2.00
2022-09-21T17:06:23.151Z,1.60
2022-09-21T17:09:27.086Z,1.38
2022-09-21T17:12:25.225Z,1.42
2022-09-21T17:15:19.920Z,1.52
2022-09-21T17:18:15.325Z,1.20
2022-09-21T17:21:11.223Z,1.20
2022-09-21T17:24:06.877Z,1.40
2022-09-21T17:27:01.366Z,1.73
2022-09-21T17:29:56.561Z,1.33
2022-09-21T17:32:51.326Z,1.30
2022-09-21T17:35:45.954Z,1.48
2022-09-21T17:38:40.366Z,1.42
2022-09-21T17:41:59.646Z,1.30
2022-09-21T17:45:15.483Z,1.52
2022-09-21T17:48:20.318Z,1.67
2022-09-21T17:51:34.796Z,1.35
2022-09-21T17:54:29.551Z,1.52
2022-09-21T17:57:42.341Z,1.05
2022-09-21T18:00:46.832Z,1.60
2022-09-21T18:03:45.764Z,1.70
2022-09-21T18:06:40.561Z,1.77
2022-09-21T18:09:35.337Z,1.88
2022-09-21T18:12:58.721Z,2.00
2022-09-21T18:16:04.820Z,1.50
2022-09-21T18:19:11.378Z,1.60
2022-09-21T18:22:27.722Z,1.30
2022-09-21T18:25:37.064Z,1.33
2022-09-21T18:28:47.038Z,1.25
2022-09-21T18:32:04.612Z,1.38
2022-09-21T18:35:17.407Z,1.70
2022-09-21T18:39:07.007Z,1.70
2022-09-21T18:42:39.393Z,1.90
2022-09-21T18:45:49.820Z,1.80
2022-09-21T18:48:57.737Z,1.77
2022-09-21T18:52:15.040Z,1.70
2022-09-21T18:55:30.686Z,1.80
2022-09-21T18:58:25.392Z,2.00
2022-09-21T19:01:23.277Z,2.10
2022-09-21T19:04:21.449Z,1.70
2022-09-21T19:07:40.050Z,1.73
2022-09-21T19:11:09.557Z,1.92
2022-09-21T19:14:22.006Z,2.05
2022-09-21T19:17:40.942Z,1.88
2022-09-21T19:21:03.400Z,1.63
2022-09-21T19:24:25.167Z,1.80
2022-09-21T19:27:44.849Z,2.25
2022-09-21T19:30:40.719Z,1.70
2022-09-21T19:33:51.549Z,1.90
2022-09-21T19:36:50.864Z,1.77
2022-09-21T19:39:45.609Z,1.60
2022-09-21T19:43:01.462Z,1.80
2022-09-21T19:46:15.795Z,1.55
2022-09-21T19:49:22.284Z,1.38
2022-09-21T19:52:20.203Z,1.52
2022-09-21T19:55:41.338Z,1.30
2022-09-21T19:58:54.450Z,1.60
2022-09-21T20:02:01.428Z,1.20
2022-09-21T20:05:10.112Z,1.20
2022-09-21T20:08:15.954Z,1.30
2022-09-21T20:11:11.689Z,1.20
2022-09-21T20:14:20.679Z,1.10
2022-09-21T20:17:23.329Z,1.50
2022-09-21T20:20:28.401Z,1.10
2022-09-21T20:23:23.600Z,1.10
2022-09-21T20:26:27.054Z,1.02
2022-09-21T20:29:23.135Z,1.15
2022-09-21T20:32:17.661Z,1.08
2022-09-21T20:35:32.637Z,0.93
2022-09-21T20:38:27.137Z,0.80
2022-09-21T20:41:25.667Z,0.90
2022-09-21T20:44:20.105Z,0.90
2022-09-21T20:47:14.553Z,1.00
2022-09-21T20:50:13.254Z,1.02
2022-09-21T20:53:08.882Z,0.85
2022-09-21T20:56:03.831Z,0.90
2022-09-21T20:58:58.477Z,1.25
2022-09-21T21:01:53.535Z,0.95
2022-09-21T21:04:48.153Z,0.90
2022-09-21T21:07:45.929Z,1.00
2022-09-21T21:10:40.466Z,1.00
2022-09-21T21:13:35.784Z,1.05
2022-09-21T21:16:30.278Z,1.10
2022-09-21T21:19:25.436Z,1.08
2022-09-21T21:22:20.492Z,1.00
2022-09-21T21:25:14.989Z,0.80
2022-09-21T21:28:09.646Z,0.80
2022-09-21T21:31:04.082Z,0.52
2022-09-21T21:33:58.774Z,0.63
2022-09-21T21:36:53.352Z,0.52
2022-09-21T21:39:47.834Z,0.60
2022-09-21T21:42:42.365Z,0.50
2022-09-21T21:45:36.773Z,0.80
2022-09-21T21:48:31.412Z,0.57
2022-09-21T21:51:26.103Z,0.70
2022-09-21T21:54:24.774Z,0.80
2022-09-21T21:57:19.208Z,1.00
2022-09-21T22:00:14.457Z,0.60
2022-09-21T22:03:08.855Z,0.43
2022-09-21T22:06:04.070Z,0.40
2022-09-21T22:08:59.284Z,0.50
2022-09-21T22:11:53.774Z,0.68
2022-09-21T22:14:48.950Z,0.70
2022-09-21T22:17:43.400Z,0.60
2022-09-21T22:20:37.796Z,0.28
2022-09-21T22:23:32.580Z,0.22
2022-09-21T22:26:28.866Z,0.30
2022-09-21T22:29:23.374Z,0.20
2022-09-21T22:32:17.897Z,0.30
2022-09-21T22:35:12.704Z,0.20
2022-09-21T22:38:12.474Z,0.17
2022-09-21T22:41:12.155Z,0.10
2022-09-21T22:44:06.719Z,0.10
2022-09-21T22:47:01.162Z,0.20
2022-09-21T22:49:55.610Z,0.10
2022-09-21T22:52:50.084Z,0.17
2022-09-21T22:55:44.852Z,0.10
2022-09-21T22:58:45.546Z,0.10
2022-09-21T23:01:41.902Z,0.10
2022-09-21T23:04:36.446Z,0.00
2022-09-21T23:07:31.081Z,0.00
2022-09-21T23:10:28.043Z,0.10
2022-09-21T23:13:23.063Z,0.10
2022-09-21T23:16:18.564Z,0.10
2022-09-21T23:19:16.814Z,0.10
2022-09-21T23:22:11.529Z,0.22
2022-09-21T23:25:07.373Z,0.17
2022-09-21T23:28:02.058Z,0.13
2022-09-21T23:30:59.492Z,0.10
2022-09-21T23:33:55.639Z,0.20
2022-09-21T23:36:50.247Z,0.22
2022-09-21T23:39:44.749Z,0.43
2022-09-21T23:42:39.301Z,0.20
2022-09-21T23:45:33.714Z,0.20
2022-09-21T23:48:28.741Z,0.45
2022-09-21T23:51:24.044Z,0.00
2022-09-21T23:54:20.794Z,0.10
2022-09-21T23:57:15.358Z,0.10
